Overview Statistics Trail Chart Weather Telemetry Raw packets
 

This is the latest recevied weather packets stored in our database for station/object YO8RBY-2. If no packets are shown the sender has not sent any weather packets the latest 10 day(s).

<< 4 5 6 7 8 9 10 >>
Time Temp. Humidity Pressure Rain* Wind** Luminosity Snow
1788200344 27.22° C 42% 974 hPa - - 0 W/m² -
1788198520 28.89° C 37% 973 hPa - - 0 W/m² -
1788196696 31.11° C 32% 973 hPa - - 0 W/m² -
1788194872 33.89° C 27% 973 hPa - - 0 W/m² -
1788193047 37.22° C 22% 973 hPa - - 0 W/m² -
1788191223 48.89° C 12% 973 hPa - - 0 W/m² -
1788189399 46.11° C 15% 973 hPa - - 0 W/m² -
1788187575 43.33° C 17% 973 hPa - - 0 W/m² -
1788185751 42.22° C 19% 973 hPa - - 0 W/m² -
1788183926 40.56° C 20% 973 hPa - - 0 W/m² -
1788182102 41.67° C 19% 973 hPa - - 0 W/m² -
1788180278 41.11° C 19% 973 hPa - - 0 W/m² -
1788178454 40° C 20% 974 hPa - - 0 W/m² -
1788176630 39.44° C 22% 974 hPa - - 0 W/m² -
1788174810 37.22° C 25% 974 hPa - - 0 W/m² -
1788172982 36.11° C 27% 974 hPa - - 0 W/m² -
1788171157 35.56° C 29% 975 hPa - - 0 W/m² -
1788169333 34.44° C 31% 975 hPa - - 0 W/m² -
1788165685 32.22° C 36% 975 hPa - - 0 W/m² -
1788163861 30° C 38% 976 hPa - - 0 W/m² -
1788162036 27.78° C 42% 976 hPa - - 0 W/m² -
1788160212 27.22° C 43% 976 hPa - - 0 W/m² -
1788158388 26.67° C 46% 976 hPa - - 0 W/m² -
1788156564 24.44° C 50% 976 hPa - - 0 W/m² -
1788154712 23.89° C 52% 976 hPa - - 0 W/m² -

* Rain since midnight (hover to see other rain measurements)
** Current wind speed in m/s (hover to see current wind gust speed)